Wednesday, October 18, 2017, 3:33 AM EDT
Back to Local

KLWM, Lawrence Municipal Airport

Location: North Andover, MA, United States Lat: 42.717
Local Time: 3:33 AM EDT ( 7:33 GMT) Lon: -71.133
Time Zone: US/Eastern Elev: 147 ft

Show me the last for .
Show Decoded

2017-10-18 02:54 METAR KLWM 180654Z AUTO 22006KT 10SM CLR 08/03 A3019 RMK AO2 SLP225 T00830033 =
2017-10-18 01:54 METAR KLWM 180554Z AUTO 20007KT 10SM CLR 08/02 A3021 RMK AO2 SLP230 T00830022
                 10106 20078 58008 =
2017-10-18 00:54 METAR KLWM 180454Z AUTO 21008KT 10SM CLR 09/02 A3022 RMK AO2 SLP236 T00890022
                 401440033 =
2017-10-17 23:54 METAR KLWM 180354Z AUTO 20006KT 10SM CLR 08/02 A3023 RMK AO2 SLP239 T00830017 =
2017-10-17 22:54 METAR KLWM 180254Z AUTO 20005KT 10SM CLR 08/02 A3023 RMK AO2 SLP239 T00830017
                 50002 =
2017-10-17 21:54 METAR KLWM 180154Z 20007KT 10SM CLR 09/02 A3024 RMK AO2 SLP241 T00890017 =
2017-10-17 20:54 METAR KLWM 180054Z 21004KT 10SM CLR 09/01 A3024 RMK AO2 SLP241 T00940006 =
2017-10-17 19:54 METAR KLWM 172354Z 21005KT 10SM CLR 11/00 A3023 RMK AO2 SLP237 T01060000 10144
                 20100 53004 =
2017-10-17 18:54 METAR KLWM 172254Z 17004KT 10SM CLR 12/M01 A3022 RMK AO2 SLP233 T01221006 =
2017-10-17 17:54 METAR KLWM 172154Z 19004KT 10SM CLR 13/00 A3021 RMK AO2 SLP231 T01330000 =
2017-10-17 16:54 METAR KLWM 172054Z 23008KT 10SM CLR 14/M01 A3021 RMK AO2 SLP232 T01441006 56015
                 =
2017-10-17 15:54 METAR KLWM 171954Z VRB03KT 10SM CLR 14/M01 A3022 RMK AO2 SLP235 T01441011 =
2017-10-17 14:54 METAR KLWM 171854Z 25008KT 10SM CLR 14/M01 A3024 RMK AO2 SLP240 T01391011 =
2017-10-17 13:54 METAR KLWM 171754Z 19007KT 10SM CLR 13/M01 A3026 RMK AO2 SLP247 T01331011 10133
                 20044 58015 =
2017-10-17 12:54 METAR KLWM 171654Z VRB06KT 10SM CLR 12/M01 A3028 RMK AO2 SLP253 T01221011 =
2017-10-17 11:54 METAR KLWM 171554Z 10SM CLR 11/M01 A3030 RMK AO2 SLP262 T01111006 =
2017-10-17 10:54 METAR KLWM 171454Z 00000KT 10SM CLR 10/00 A3030 RMK AO2 SLP262 T01000000 50000 =
2017-10-17 09:54 METAR KLWM 171354Z 32005KT 10SM CLR 09/01 A3032 RMK AO2 SLP266 T00890011 =
2017-10-17 08:54 METAR KLWM 171254Z 31006KT 10SM CLR 07/01 A3031 RMK AO2 SLP266 T00670011 =
2017-10-17 07:54 METAR KLWM 171154Z 30003KT 10SM CLR 04/01 A3030 RMK AO2 SLP261 T00440006 10056
                 20033 53020 =
2017-10-17 06:54 METAR KLWM 171054Z 31003KT 10SM CLR 04/00 A3028 RMK AO2 SLP255 T00390000 =
2017-10-17 05:54 METAR KLWM 170954Z AUTO 00000KT 10SM CLR 04/01 A3026 RMK AO2 SLP247 T00390006 =
2017-10-17 04:54 METAR KLWM 170854Z AUTO 30004KT 10SM CLR 04/01 A3024 RMK AO2 SLP241 T00390006
                 53016 =
2017-10-17 03:54 METAR KLWM 170754Z AUTO 31003KT 10SM CLR 04/01 A3023 RMK AO2 SLP236 T00440006 =

Support USWX by starting your Amazon purchase here.